createdAt,value
2022-12-11T00:04:15.789Z,97790.78
2022-12-11T00:08:31.959Z,97785.66
2022-12-11T00:12:48.182Z,97779.81
2022-12-11T00:17:04.562Z,97773.53
2022-12-11T00:21:20.743Z,97773.41
2022-12-11T00:25:41.255Z,97765.25
2022-12-11T00:29:57.348Z,97753.91
2022-12-11T00:34:13.481Z,97747.28
2022-12-11T00:38:29.688Z,97748.94
2022-12-11T00:42:45.838Z,97731.72
2022-12-11T00:47:02.013Z,97738.94
2022-12-11T00:51:18.825Z,97742.09
2022-12-11T00:55:39.444Z,97742.91
2022-12-11T00:59:55.600Z,97738.37
2022-12-11T01:04:11.689Z,97737.66
2022-12-11T01:08:27.907Z,97745.69
2022-12-11T01:12:44.007Z,97746.81
2022-12-11T01:17:00.257Z,97745.84
2022-12-11T01:21:16.399Z,97735.94
2022-12-11T01:25:33.556Z,97736.09
2022-12-11T01:29:49.900Z,97732.97
2022-12-11T01:34:06.043Z,97727.50
2022-12-11T01:38:22.190Z,97747.78
2022-12-11T01:42:38.565Z,97748.78
2022-12-11T01:46:54.783Z,97750.72
2022-12-11T01:51:11.012Z,97758.25
2022-12-11T01:55:27.273Z,97759.38
2022-12-11T01:59:46.583Z,97765.09
2022-12-11T02:04:02.813Z,97764.94
2022-12-11T02:08:19.870Z,97768.00
2022-12-11T02:12:42.627Z,97767.72
2022-12-11T02:17:14.449Z,97784.97
2022-12-11T02:21:41.310Z,97778.88
2022-12-11T02:26:26.956Z,97787.00
2022-12-11T02:30:44.003Z,97782.97
2022-12-11T02:35:13.008Z,97767.59
2022-12-11T02:39:29.842Z,97775.69
2022-12-11T02:43:47.740Z,97774.91
2022-12-11T02:48:06.151Z,97769.00
2022-12-11T02:52:24.659Z,97768.44
2022-12-11T02:57:16.985Z,97754.72
2022-12-11T03:01:33.176Z,97758.16
2022-12-11T03:05:49.541Z,97749.06
2022-12-11T03:10:07.723Z,97748.78
2022-12-11T03:14:23.945Z,97744.75
2022-12-11T03:18:51.980Z,97731.56
2022-12-11T03:23:14.231Z,97730.22
2022-12-11T03:27:48.234Z,97731.72
2022-12-11T03:32:20.098Z,97739.88
2022-12-11T03:36:39.378Z,97733.22
2022-12-11T03:40:58.494Z,97738.84
2022-12-11T03:45:16.822Z,97730.75
2022-12-11T03:49:37.314Z,97737.75
2022-12-11T03:53:53.586Z,97731.69
2022-12-11T03:58:09.634Z,97739.25
2022-12-11T04:02:25.768Z,97734.25
2022-12-11T04:06:41.882Z,97739.66
2022-12-11T04:11:16.670Z,97738.72
2022-12-11T04:15:32.994Z,97742.34
2022-12-11T04:20:07.559Z,97755.22
2022-12-11T04:24:23.694Z,97752.09
2022-12-11T04:28:40.606Z,97762.03
2022-12-11T04:32:57.114Z,97766.03
2022-12-11T04:37:13.223Z,97777.53
2022-12-11T04:41:29.423Z,97773.16
2022-12-11T04:45:45.532Z,97784.25
2022-12-11T04:50:01.642Z,97794.28
2022-12-11T04:54:17.855Z,97792.00
2022-12-11T04:58:36.031Z,97811.59
2022-12-11T05:02:52.225Z,97807.63
2022-12-11T05:07:09.565Z,97806.00
2022-12-11T05:11:25.675Z,97813.25
2022-12-11T05:15:41.909Z,97823.88
2022-12-11T05:19:58.097Z,97831.47
2022-12-11T05:24:14.178Z,97831.19
2022-12-11T05:28:34.778Z,97846.69
2022-12-11T05:32:50.965Z,97849.03
2022-12-11T05:37:07.145Z,97846.94
2022-12-11T05:41:25.704Z,97859.75
2022-12-11T05:45:41.979Z,97855.75
2022-12-11T05:49:58.132Z,97858.59
2022-12-11T05:54:14.679Z,97855.91
2022-12-11T05:58:31.565Z,97857.16
2022-12-11T06:02:47.758Z,97852.53
2022-12-11T06:07:03.947Z,97869.28
2022-12-11T06:11:24.134Z,97863.34
2022-12-11T06:15:40.714Z,97858.69
2022-12-11T06:19:56.799Z,97872.00
2022-12-11T06:24:13.025Z,97888.69
2022-12-11T06:28:29.212Z,97885.13
2022-12-11T06:32:45.551Z,97905.78
2022-12-11T06:37:01.661Z,97926.16
2022-12-11T06:41:18.113Z,97928.06
2022-12-11T06:45:36.142Z,97930.22
2022-12-11T06:49:52.258Z,97928.53
2022-12-11T06:54:08.418Z,97923.75
2022-12-11T06:58:24.525Z,97933.22
2022-12-11T07:02:40.903Z,97934.91
2022-12-11T07:06:57.637Z,97937.59
2022-12-11T07:11:16.046Z,97948.69
2022-12-11T07:15:34.375Z,97950.13
2022-12-11T07:19:52.548Z,97958.84
2022-12-11T07:24:09.022Z,97960.44
2022-12-11T07:28:25.191Z,97963.69
2022-12-11T07:32:41.459Z,97963.66
2022-12-11T07:36:58.338Z,97966.84
2022-12-11T07:41:15.764Z,97979.66
2022-12-11T07:45:32.078Z,97997.53
2022-12-11T07:49:51.118Z,97994.59
2022-12-11T07:54:09.261Z,98006.34
2022-12-11T07:58:25.398Z,97996.44
2022-12-11T08:02:41.660Z,98001.88
2022-12-11T08:06:59.230Z,98007.25
2022-12-11T08:11:16.171Z,98006.56
2022-12-11T08:15:32.260Z,98015.03
2022-12-11T08:19:48.368Z,98028.38
2022-12-11T08:24:04.622Z,98030.75
2022-12-11T08:28:20.962Z,98047.38
2022-12-11T08:32:37.188Z,98052.38
2022-12-11T08:36:53.258Z,98051.66
2022-12-11T08:41:17.997Z,98056.41
2022-12-11T08:45:34.301Z,98072.06
2022-12-11T08:49:50.417Z,98082.50
2022-12-11T08:54:06.499Z,98109.69
2022-12-11T08:58:22.607Z,98095.13
2022-12-11T09:02:38.830Z,98113.06
2022-12-11T09:06:54.978Z,98112.84
2022-12-11T09:11:13.796Z,98116.81
2022-12-11T09:15:30.075Z,98115.94
2022-12-11T09:19:46.319Z,98113.97
2022-12-11T09:24:02.658Z,98116.41
2022-12-11T09:28:18.826Z,98111.16
2022-12-11T09:32:34.949Z,98106.56
2022-12-11T09:36:51.057Z,98117.87
2022-12-11T09:41:22.703Z,98123.63
2022-12-11T09:45:38.888Z,98121.84
2022-12-11T09:50:14.361Z,98116.88
2022-12-11T09:54:31.033Z,98115.50
2022-12-11T09:59:24.166Z,98127.28
2022-12-11T10:04:01.690Z,98127.44
2022-12-11T10:08:29.610Z,98128.88
2022-12-11T10:13:14.551Z,98120.22
2022-12-11T10:17:34.187Z,98112.78
2022-12-11T10:21:52.437Z,98112.69
2022-12-11T10:26:19.146Z,98108.59
2022-12-11T10:30:38.424Z,98108.56
2022-12-11T10:35:05.592Z,98106.28
2022-12-11T10:39:23.229Z,98117.22
2022-12-11T10:43:46.118Z,98111.59
2022-12-11T10:48:11.744Z,98108.16
2022-12-11T10:52:32.433Z,98125.81
2022-12-11T10:56:49.258Z,98136.84
2022-12-11T11:01:15.026Z,98150.72
2022-12-11T11:05:37.840Z,98145.84
2022-12-11T11:10:15.685Z,98142.19
2022-12-11T11:14:31.859Z,98138.47
2022-12-11T11:18:54.374Z,98157.47
2022-12-11T11:23:15.001Z,98153.91
2022-12-11T11:27:50.125Z,98155.28
2022-12-11T11:32:38.941Z,98153.72
2022-12-11T11:37:01.189Z,98151.59
2022-12-11T11:41:36.536Z,98149.59
2022-12-11T11:46:15.288Z,98149.81
2022-12-11T11:50:35.903Z,98146.09
2022-12-11T11:55:22.376Z,98164.56
2022-12-11T11:59:55.499Z,98163.22
2022-12-11T12:04:12.251Z,98159.84
2022-12-11T12:08:53.827Z,98177.78
2022-12-11T12:13:52.764Z,98180.34
2022-12-11T12:18:30.309Z,98191.09
2022-12-11T12:23:08.675Z,98203.16
2022-12-11T12:27:51.728Z,98196.91
2022-12-11T12:32:22.588Z,98194.03
2022-12-11T12:36:42.821Z,98189.38
2022-12-11T12:41:17.091Z,98189.72
2022-12-11T12:45:51.208Z,98191.62
2022-12-11T12:50:16.633Z,98193.00
2022-12-11T12:54:36.523Z,98188.63
2022-12-11T12:58:52.602Z,98186.75
2022-12-11T13:03:23.711Z,98182.72
2022-12-11T13:07:54.011Z,98197.63
2022-12-11T13:12:16.139Z,98205.97
2022-12-11T13:16:43.882Z,98209.47
2022-12-11T13:21:00.291Z,98213.78
2022-12-11T13:25:31.723Z,98213.50
2022-12-11T13:29:47.949Z,98225.31
2022-12-11T13:34:21.434Z,98240.53
2022-12-11T13:38:39.198Z,98239.72
2022-12-11T13:42:57.361Z,98236.12
2022-12-11T13:47:15.625Z,98257.75
2022-12-11T13:51:35.349Z,98269.66
2022-12-11T13:56:06.009Z,98273.25
2022-12-11T14:00:33.166Z,98264.72
2022-12-11T14:04:52.330Z,98277.13
2022-12-11T14:09:08.780Z,98279.06
2022-12-11T14:13:27.695Z,98280.28
2022-12-11T14:17:48.558Z,98287.28
2022-12-11T14:22:08.261Z,98289.84
2022-12-11T14:26:29.543Z,98295.47
2022-12-11T14:30:51.920Z,98301.75
2022-12-11T14:35:16.693Z,98317.91
2022-12-11T14:39:36.701Z,98320.56
2022-12-11T14:43:56.325Z,98331.31
2022-12-11T14:48:24.003Z,98343.09
2022-12-11T14:52:43.518Z,98351.25
2022-12-11T14:57:01.829Z,98348.28
2022-12-11T15:01:29.936Z,98339.41
2022-12-11T15:05:54.922Z,98341.34
2022-12-11T15:10:25.062Z,98347.31
2022-12-11T15:15:06.959Z,98358.62
2022-12-11T15:19:35.031Z,98372.47
2022-12-11T15:23:55.329Z,98390.81
2022-12-11T15:28:30.467Z,98390.66
2022-12-11T15:32:47.023Z,98381.78
2022-12-11T15:37:03.371Z,98393.03
2022-12-11T15:41:21.722Z,98391.50
2022-12-11T15:45:38.378Z,98404.19
2022-12-11T15:49:59.999Z,98390.06
2022-12-11T15:54:16.164Z,98392.00
2022-12-11T15:58:32.859Z,98392.50
2022-12-11T16:02:49.236Z,98390.13
2022-12-11T16:07:06.262Z,98401.56
2022-12-11T16:11:22.398Z,98399.53
2022-12-11T16:15:40.646Z,98394.53
2022-12-11T16:19:56.758Z,98398.00
2022-12-11T16:24:12.915Z,98409.19
2022-12-11T16:28:29.072Z,98423.13
2022-12-11T16:32:45.320Z,98422.38
2022-12-11T16:37:01.824Z,98422.56
2022-12-11T16:41:17.885Z,98424.34
2022-12-11T16:45:34.148Z,98436.75
2022-12-11T16:49:50.438Z,98433.06
2022-12-11T16:54:07.193Z,98422.53
2022-12-11T16:58:23.392Z,98430.34
2022-12-11T17:02:39.967Z,98431.16
2022-12-11T17:06:56.309Z,98433.53
2022-12-11T17:11:15.527Z,98434.88
2022-12-11T17:15:31.751Z,98442.88
2022-12-11T17:19:47.900Z,98442.69
2022-12-11T17:24:04.208Z,98430.25
2022-12-11T17:28:20.373Z,98431.84
2022-12-11T17:32:36.716Z,98438.28
2022-12-11T17:36:52.911Z,98440.38
2022-12-11T17:41:13.124Z,98441.88
2022-12-11T17:45:33.098Z,98436.75
2022-12-11T17:49:49.365Z,98448.41
2022-12-11T17:54:05.782Z,98453.56
2022-12-11T17:58:23.457Z,98455.31
2022-12-11T18:02:39.670Z,98454.63
2022-12-11T18:06:56.314Z,98471.16
2022-12-11T18:11:17.538Z,98474.13
2022-12-11T18:15:33.836Z,98467.09
2022-12-11T18:19:50.259Z,98463.09
2022-12-11T18:24:06.746Z,98471.28
2022-12-11T18:28:23.054Z,98472.09
2022-12-11T18:32:39.226Z,98476.03
2022-12-11T18:36:55.401Z,98485.75
2022-12-11T18:41:13.427Z,98484.09
2022-12-11T18:45:30.445Z,98484.87
2022-12-11T18:49:46.629Z,98486.00
2022-12-11T18:54:02.761Z,98485.75
2022-12-11T18:58:19.776Z,98490.56
2022-12-11T19:02:36.292Z,98491.66
2022-12-11T19:06:52.507Z,98496.75
2022-12-11T19:11:09.282Z,98505.50
2022-12-11T19:15:25.501Z,98515.37
2022-12-11T19:19:43.321Z,98523.59
2022-12-11T19:23:59.855Z,98533.88
2022-12-11T19:28:17.332Z,98539.56
2022-12-11T19:32:36.356Z,98544.56
2022-12-11T19:36:52.680Z,98553.72
2022-12-11T19:41:14.070Z,98549.16
2022-12-11T19:45:32.527Z,98545.09
2022-12-11T19:49:49.020Z,98542.66
2022-12-11T19:54:06.970Z,98549.66
2022-12-11T19:58:23.354Z,98550.22
2022-12-11T20:02:39.834Z,98551.41
2022-12-11T20:06:56.009Z,98556.25
2022-12-11T20:11:17.558Z,98549.84
2022-12-11T20:15:42.074Z,98553.50
2022-12-11T20:19:58.967Z,98554.63
2022-12-11T20:24:15.066Z,98557.25
2022-12-11T20:28:31.365Z,98553.31
2022-12-11T20:32:47.512Z,98558.84
2022-12-11T20:37:03.859Z,98565.59
2022-12-11T20:41:31.873Z,98563.69
2022-12-11T20:45:53.078Z,98568.25
2022-12-11T20:50:11.236Z,98581.13
2022-12-11T20:54:27.373Z,98575.28
2022-12-11T20:58:44.175Z,98580.47
2022-12-11T21:03:00.322Z,98577.59
2022-12-11T21:07:16.450Z,98566.94
2022-12-11T21:11:32.843Z,98574.41
2022-12-11T21:15:52.762Z,98571.03
2022-12-11T21:20:09.298Z,98574.34
2022-12-11T21:24:27.811Z,98589.09
2022-12-11T21:28:44.133Z,98585.66
2022-12-11T21:33:01.113Z,98587.47
2022-12-11T21:37:17.323Z,98587.19
2022-12-11T21:41:33.928Z,98604.19
2022-12-11T21:46:05.659Z,98600.47
2022-12-11T21:50:22.117Z,98614.03
2022-12-11T21:54:38.328Z,98616.81
2022-12-11T21:58:55.531Z,98611.19
2022-12-11T22:03:11.640Z,98612.97
2022-12-11T22:07:27.837Z,98614.59
2022-12-11T22:11:45.779Z,98632.22
2022-12-11T22:16:02.137Z,98622.41
2022-12-11T22:20:18.904Z,98617.50
2022-12-11T22:24:35.081Z,98627.06
2022-12-11T22:28:52.077Z,98629.25
2022-12-11T22:33:08.250Z,98635.63
2022-12-11T22:37:25.088Z,98630.91
2022-12-11T22:41:44.801Z,98625.66
2022-12-11T22:46:01.132Z,98642.19
2022-12-11T22:50:18.209Z,98643.28
2022-12-11T22:54:34.476Z,98647.22
2022-12-11T22:58:50.817Z,98647.19
2022-12-11T23:03:07.058Z,98653.38
2022-12-11T23:07:23.288Z,98649.41
2022-12-11T23:11:40.340Z,98652.06
2022-12-11T23:15:56.482Z,98656.91
2022-12-11T23:20:12.809Z,98645.06
2022-12-11T23:24:29.061Z,98658.34
2022-12-11T23:28:45.440Z,98668.72
2022-12-11T23:33:01.603Z,98667.78
2022-12-11T23:37:17.739Z,98665.00
2022-12-11T23:41:33.944Z,98666.44
2022-12-11T23:45:50.144Z,98656.94
2022-12-11T23:50:06.677Z,98660.31
2022-12-11T23:54:23.001Z,98667.16
2022-12-11T23:58:39.953Z,98665.78
